aviador You're here:

LFOE Decoded Metar

EVREUX in FRANCE
Report Time2017-10-20 12:00:00
UTC Time2017-10-20 12:27:40
Flight Rules vfr VFR
Wind260° at 12 kt
W.Decomp.*RWY 22: 9.1 kt HW 7.9 kt RCW
W.Rank260° ranks 4
Current wind is above 260° avg. (7.9)
Visibility9999 m
Phenomena:N/A
Clouds:Broken 034 Hf
Broken 041 Hf
Expected CloudBase > 3,200 ft AGL from Temp-Dew spread
Ceiling3,400 ft
Temp16°C (ISA +2)
Dew Point08°C (59% RH)
AAT11.2°C
QNH1014 hPa
Density Alt823 ft
Elevation479 ft
Report Wrong Elevation
Raw Report
LFOE 201200Z AUTO 26012KT 9999 BKN034 BKN041 16/08 Q1014=

Extra information for LFOE:More info

Metar Taf Metar & Taf Last 4 Metars F.Rules Stats Wind Profile Meteogram Temp Stats Airport Information Weather charts Add Link Nearby VenuesMetar ALERT Operation Metar Decoded Social comments